sensor_id;sensor_type;location;lat;lon;timestamp;temperature;humidity
40023;DHT22;25713;-35.352;149.036;2022-07-29T00:01:28;11.00;79.60
40023;DHT22;25713;-35.352;149.036;2022-07-29T00:03:58;11.00;79.20
40023;DHT22;25713;-35.352;149.036;2022-07-29T00:06:27;11.00;78.40
40023;DHT22;25713;-35.352;149.036;2022-07-29T00:08:57;11.00;77.50
40023;DHT22;25713;-35.352;149.036;2022-07-29T00:11:28;11.10;76.80
40023;DHT22;25713;-35.352;149.036;2022-07-29T00:13:58;11.10;76.30
40023;DHT22;25713;-35.352;149.036;2022-07-29T00:16:28;11.10;75.70
40023;DHT22;25713;-35.352;149.036;2022-07-29T00:18:57;11.10;75.20
40023;DHT22;25713;-35.352;149.036;2022-07-29T00:21:27;11.10;75.20
40023;DHT22;25713;-35.352;149.036;2022-07-29T00:23:56;11.20;75.30
40023;DHT22;25713;-35.352;149.036;2022-07-29T00:26:28;11.20;75.70
40023;DHT22;25713;-35.352;149.036;2022-07-29T00:28:58;11.30;76.10
40023;DHT22;25713;-35.352;149.036;2022-07-29T00:31:28;11.30;76.40
40023;DHT22;25713;-35.352;149.036;2022-07-29T00:33:58;11.30;76.50
40023;DHT22;25713;-35.352;149.036;2022-07-29T00:36:27;11.40;76.20
40023;DHT22;25713;-35.352;149.036;2022-07-29T00:38:57;11.30;76.20
40023;DHT22;25713;-35.352;149.036;2022-07-29T00:41:28;11.40;76.60
40023;DHT22;25713;-35.352;149.036;2022-07-29T00:43:58;11.40;76.70
40023;DHT22;25713;-35.352;149.036;2022-07-29T00:46:27;11.40;76.60
40023;DHT22;25713;-35.352;149.036;2022-07-29T00:48:57;11.40;75.70
40023;DHT22;25713;-35.352;149.036;2022-07-29T00:51:27;11.40;76.10
40023;DHT22;25713;-35.352;149.036;2022-07-29T00:53:57;11.40;75.70
40023;DHT22;25713;-35.352;149.036;2022-07-29T00:56:31;11.40;76.40
40023;DHT22;25713;-35.352;149.036;2022-07-29T00:59:01;11.30;76.60
40023;DHT22;25713;-35.352;149.036;2022-07-29T01:01:31;11.30;77.50
40023;DHT22;25713;-35.352;149.036;2022-07-29T01:04:01;11.30;76.70
40023;DHT22;25713;-35.352;149.036;2022-07-29T01:06:31;11.30;76.40
40023;DHT22;25713;-35.352;149.036;2022-07-29T01:09:01;11.40;76.00
40023;DHT22;25713;-35.352;149.036;2022-07-29T01:11:33;11.50;75.80
40023;DHT22;25713;-35.352;149.036;2022-07-29T01:14:08;11.50;75.50
40023;DHT22;25713;-35.352;149.036;2022-07-29T01:16:42;11.50;74.80
40023;DHT22;25713;-35.352;149.036;2022-07-29T01:19:41;11.60;74.50
40023;DHT22;25713;-35.352;149.036;2022-07-29T01:22:27;11.60;74.90
40023;DHT22;25713;-35.352;149.036;2022-07-29T01:28:08;11.60;76.20
40023;DHT22;25713;-35.352;149.036;2022-07-29T01:30:47;11.60;76.60
40023;DHT22;25713;-35.352;149.036;2022-07-29T01:33:22;11.60;77.10
40023;DHT22;25713;-35.352;149.036;2022-07-29T01:35:54;11.70;76.00
40023;DHT22;25713;-35.352;149.036;2022-07-29T01:38:26;11.70;75.30
40023;DHT22;25713;-35.352;149.036;2022-07-29T01:41:05;11.80;74.60
40023;DHT22;25713;-35.352;149.036;2022-07-29T01:43:39;11.80;74.60
40023;DHT22;25713;-35.352;149.036;2022-07-29T01:46:14;11.90;74.70
40023;DHT22;25713;-35.352;149.036;2022-07-29T01:48:47;11.90;74.20
40023;DHT22;25713;-35.352;149.036;2022-07-29T01:51:20;11.90;74.30
40023;DHT22;25713;-35.352;149.036;2022-07-29T01:53:54;11.90;74.70
40023;DHT22;25713;-35.352;149.036;2022-07-29T01:56:24;11.90;75.00
40023;DHT22;25713;-35.352;149.036;2022-07-29T01:58:55;11.90;75.40
40023;DHT22;25713;-35.352;149.036;2022-07-29T02:01:28;11.90;76.30
40023;DHT22;25713;-35.352;149.036;2022-07-29T02:04:00;11.90;76.00
40023;DHT22;25713;-35.352;149.036;2022-07-29T02:06:33;11.90;75.30
40023;DHT22;25713;-35.352;149.036;2022-07-29T02:09:04;12.00;73.60
40023;DHT22;25713;-35.352;149.036;2022-07-29T02:11:36;12.00;74.90
40023;DHT22;25713;-35.352;149.036;2022-07-29T02:14:06;12.00;73.70
40023;DHT22;25713;-35.352;149.036;2022-07-29T02:16:39;12.10;74.30
40023;DHT22;25713;-35.352;149.036;2022-07-29T02:19:10;12.10;74.80
40023;DHT22;25713;-35.352;149.036;2022-07-29T02:21:41;12.10;73.70
40023;DHT22;25713;-35.352;149.036;2022-07-29T02:24:13;12.10;75.80
40023;DHT22;25713;-35.352;149.036;2022-07-29T02:26:44;12.10;75.80
40023;DHT22;25713;-35.352;149.036;2022-07-29T02:29:15;12.10;75.30
40023;DHT22;25713;-35.352;149.036;2022-07-29T02:31:49;12.20;74.30
40023;DHT22;25713;-35.352;149.036;2022-07-29T02:34:20;12.20;72.70
40023;DHT22;25713;-35.352;149.036;2022-07-29T02:36:50;12.20;75.30
40023;DHT22;25713;-35.352;149.036;2022-07-29T02:39:22;12.20;75.10
40023;DHT22;25713;-35.352;149.036;2022-07-29T02:41:57;12.20;70.20
40023;DHT22;25713;-35.352;149.036;2022-07-29T02:44:28;12.10;74.60
40023;DHT22;25713;-35.352;149.036;2022-07-29T02:47:02;12.20;74.40
40023;DHT22;25713;-35.352;149.036;2022-07-29T02:49:40;12.30;74.10
40023;DHT22;25713;-35.352;149.036;2022-07-29T02:52:15;12.30;74.40
40023;DHT22;25713;-35.352;149.036;2022-07-29T02:54:49;12.40;73.80
40023;DHT22;25713;-35.352;149.036;2022-07-29T02:57:28;12.40;74.00
40023;DHT22;25713;-35.352;149.036;2022-07-29T03:00:03;12.40;72.90
40023;DHT22;25713;-35.352;149.036;2022-07-29T03:02:40;12.40;74.90
40023;DHT22;25713;-35.352;149.036;2022-07-29T03:05:13;12.50;75.30
40023;DHT22;25713;-35.352;149.036;2022-07-29T03:07:49;12.50;74.20
40023;DHT22;25713;-35.352;149.036;2022-07-29T03:10:21;12.50;74.50
40023;DHT22;25713;-35.352;149.036;2022-07-29T03:12:53;12.50;74.90
40023;DHT22;25713;-35.352;149.036;2022-07-29T03:15:24;12.60;75.60
40023;DHT22;25713;-35.352;149.036;2022-07-29T03:17:56;12.60;76.60
40023;DHT22;25713;-35.352;149.036;2022-07-29T03:20:26;12.60;75.50
40023;DHT22;25713;-35.352;149.036;2022-07-29T03:22:56;12.60;74.40
40023;DHT22;25713;-35.352;149.036;2022-07-29T03:25:26;12.70;73.80
40023;DHT22;25713;-35.352;149.036;2022-07-29T03:27:56;12.70;73.60
40023;DHT22;25713;-35.352;149.036;2022-07-29T03:30:26;12.70;73.40
40023;DHT22;25713;-35.352;149.036;2022-07-29T03:32:57;12.70;72.10
40023;DHT22;25713;-35.352;149.036;2022-07-29T03:35:27;12.70;72.40
40023;DHT22;25713;-35.352;149.036;2022-07-29T03:37:57;12.70;72.20
40023;DHT22;25713;-35.352;149.036;2022-07-29T03:40:30;12.70;73.20
40023;DHT22;25713;-35.352;149.036;2022-07-29T03:43:01;12.70;72.10
40023;DHT22;25713;-35.352;149.036;2022-07-29T03:45:32;12.70;72.90
40023;DHT22;25713;-35.352;149.036;2022-07-29T03:48:09;12.70;73.10
40023;DHT22;25713;-35.352;149.036;2022-07-29T03:50:39;12.80;73.40
40023;DHT22;25713;-35.352;149.036;2022-07-29T03:53:09;12.80;75.20
40023;DHT22;25713;-35.352;149.036;2022-07-29T03:55:43;12.80;74.40
40023;DHT22;25713;-35.352;149.036;2022-07-29T03:58:13;12.80;74.10
40023;DHT22;25713;-35.352;149.036;2022-07-29T04:00:45;12.80;74.10
40023;DHT22;25713;-35.352;149.036;2022-07-29T04:03:17;12.90;73.70
40023;DHT22;25713;-35.352;149.036;2022-07-29T04:05:59;12.90;72.90
40023;DHT22;25713;-35.352;149.036;2022-07-29T04:08:29;12.80;70.90
40023;DHT22;25713;-35.352;149.036;2022-07-29T04:11:00;12.80;74.20
40023;DHT22;25713;-35.352;149.036;2022-07-29T04:13:30;12.90;74.00
40023;DHT22;25713;-35.352;149.036;2022-07-29T04:16:01;12.80;71.20
40023;DHT22;25713;-35.352;149.036;2022-07-29T04:18:33;12.90;71.30
40023;DHT22;25713;-35.352;149.036;2022-07-29T04:21:02;12.90;70.50
40023;DHT22;25713;-35.352;149.036;2022-07-29T04:23:33;12.90;70.00
40023;DHT22;25713;-35.352;149.036;2022-07-29T04:26:03;12.90;69.90
40023;DHT22;25713;-35.352;149.036;2022-07-29T04:28:33;13.00;72.50
40023;DHT22;25713;-35.352;149.036;2022-07-29T04:31:03;13.00;73.70
40023;DHT22;25713;-35.352;149.036;2022-07-29T04:33:34;13.00;72.80
40023;DHT22;25713;-35.352;149.036;2022-07-29T04:36:04;13.00;72.60
40023;DHT22;25713;-35.352;149.036;2022-07-29T04:38:35;13.10;73.40
40023;DHT22;25713;-35.352;149.036;2022-07-29T04:41:05;13.10;73.90
40023;DHT22;25713;-35.352;149.036;2022-07-29T04:43:35;13.10;71.80
40023;DHT22;25713;-35.352;149.036;2022-07-29T04:46:07;13.10;69.20
40023;DHT22;25713;-35.352;149.036;2022-07-29T04:48:39;13.00;65.30
40023;DHT22;25713;-35.352;149.036;2022-07-29T04:51:09;13.00;63.40
40023;DHT22;25713;-35.352;149.036;2022-07-29T04:53:39;13.00;65.50
40023;DHT22;25713;-35.352;149.036;2022-07-29T04:56:09;13.00;71.20
40023;DHT22;25713;-35.352;149.036;2022-07-29T04:58:38;13.00;73.50
40023;DHT22;25713;-35.352;149.036;2022-07-29T05:01:08;13.00;73.30
40023;DHT22;25713;-35.352;149.036;2022-07-29T05:03:40;13.00;69.80
40023;DHT22;25713;-35.352;149.036;2022-07-29T05:06:10;13.00;69.60
40023;DHT22;25713;-35.352;149.036;2022-07-29T05:08:40;13.00;70.10
40023;DHT22;25713;-35.352;149.036;2022-07-29T05:11:10;13.00;70.90
40023;DHT22;25713;-35.352;149.036;2022-07-29T05:13:40;13.10;71.20
40023;DHT22;25713;-35.352;149.036;2022-07-29T05:16:09;13.10;71.90
40023;DHT22;25713;-35.352;149.036;2022-07-29T05:18:42;13.10;72.00
40023;DHT22;25713;-35.352;149.036;2022-07-29T05:21:11;13.10;72.20
40023;DHT22;25713;-35.352;149.036;2022-07-29T05:23:41;13.10;71.50
40023;DHT22;25713;-35.352;149.036;2022-07-29T05:26:11;13.10;68.20
40023;DHT22;25713;-35.352;149.036;2022-07-29T05:28:41;13.10;70.10
40023;DHT22;25713;-35.352;149.036;2022-07-29T05:31:10;13.10;67.80
40023;DHT22;25713;-35.352;149.036;2022-07-29T05:33:42;13.00;68.40
40023;DHT22;25713;-35.352;149.036;2022-07-29T05:36:12;13.10;70.30
40023;DHT22;25713;-35.352;149.036;2022-07-29T05:38:42;13.00;73.30
40023;DHT22;25713;-35.352;149.036;2022-07-29T05:41:12;13.10;74.30
40023;DHT22;25713;-35.352;149.036;2022-07-29T05:43:42;13.10;73.60
40023;DHT22;25713;-35.352;149.036;2022-07-29T05:46:12;13.10;75.00
40023;DHT22;25713;-35.352;149.036;2022-07-29T05:48:44;13.10;75.20
40023;DHT22;25713;-35.352;149.036;2022-07-29T05:51:14;13.10;75.20
40023;DHT22;25713;-35.352;149.036;2022-07-29T05:53:45;13.10;76.00
40023;DHT22;25713;-35.352;149.036;2022-07-29T05:56:14;13.10;72.50
40023;DHT22;25713;-35.352;149.036;2022-07-29T05:58:44;13.10;76.00
40023;DHT22;25713;-35.352;149.036;2022-07-29T06:01:15;13.10;75.60
40023;DHT22;25713;-35.352;149.036;2022-07-29T06:03:47;13.10;75.80
40023;DHT22;25713;-35.352;149.036;2022-07-29T06:06:17;13.10;74.70
40023;DHT22;25713;-35.352;149.036;2022-07-29T06:08:47;13.10;74.80
40023;DHT22;25713;-35.352;149.036;2022-07-29T06:11:17;13.10;72.50
40023;DHT22;25713;-35.352;149.036;2022-07-29T06:13:47;13.10;74.70
40023;DHT22;25713;-35.352;149.036;2022-07-29T06:16:17;13.00;75.80
40023;DHT22;25713;-35.352;149.036;2022-07-29T06:18:48;13.00;76.50
40023;DHT22;25713;-35.352;149.036;2022-07-29T06:21:19;13.00;76.30
40023;DHT22;25713;-35.352;149.036;2022-07-29T06:23:49;13.00;75.50
40023;DHT22;25713;-35.352;149.036;2022-07-29T06:26:19;13.00;73.60
40023;DHT22;25713;-35.352;149.036;2022-07-29T06:28:49;13.00;75.20
40023;DHT22;25713;-35.352;149.036;2022-07-29T06:31:19;13.00;74.90
40023;DHT22;25713;-35.352;149.036;2022-07-29T06:33:51;12.90;76.40
40023;DHT22;25713;-35.352;149.036;2022-07-29T06:36:21;12.90;77.00
40023;DHT22;25713;-35.352;149.036;2022-07-29T06:38:51;12.90;76.40
40023;DHT22;25713;-35.352;149.036;2022-07-29T06:41:21;12.90;77.50
40023;DHT22;25713;-35.352;149.036;2022-07-29T06:43:52;12.90;76.80
40023;DHT22;25713;-35.352;149.036;2022-07-29T06:46:23;12.90;76.90
40023;DHT22;25713;-35.352;149.036;2022-07-29T06:48:55;12.80;75.10
40023;DHT22;25713;-35.352;149.036;2022-07-29T06:51:25;12.80;77.00
40023;DHT22;25713;-35.352;149.036;2022-07-29T06:53:55;12.80;77.90
40023;DHT22;25713;-35.352;149.036;2022-07-29T06:56:26;12.80;76.50
40023;DHT22;25713;-35.352;149.036;2022-07-29T06:58:56;12.70;76.80
40023;DHT22;25713;-35.352;149.036;2022-07-29T07:01:26;12.70;76.80
40023;DHT22;25713;-35.352;149.036;2022-07-29T07:03:58;12.70;76.60
40023;DHT22;25713;-35.352;149.036;2022-07-29T07:06:29;12.70;76.40
40023;DHT22;25713;-35.352;149.036;2022-07-29T07:08:59;12.70;77.00
40023;DHT22;25713;-35.352;149.036;2022-07-29T07:11:30;12.60;73.80
40023;DHT22;25713;-35.352;149.036;2022-07-29T07:14:00;12.60;74.20
40023;DHT22;25713;-35.352;149.036;2022-07-29T07:16:30;12.60;74.50
40023;DHT22;25713;-35.352;149.036;2022-07-29T07:19:02;12.60;73.80
40023;DHT22;25713;-35.352;149.036;2022-07-29T07:21:32;12.60;73.10
40023;DHT22;25713;-35.352;149.036;2022-07-29T07:24:02;12.60;73.30
40023;DHT22;25713;-35.352;149.036;2022-07-29T07:26:32;12.50;72.50
40023;DHT22;25713;-35.352;149.036;2022-07-29T07:29:02;12.50;72.30
40023;DHT22;25713;-35.352;149.036;2022-07-29T07:31:32;12.50;71.10
40023;DHT22;25713;-35.352;149.036;2022-07-29T07:34:04;12.50;71.30
40023;DHT22;25713;-35.352;149.036;2022-07-29T07:36:34;12.50;71.70
40023;DHT22;25713;-35.352;149.036;2022-07-29T07:39:04;12.50;71.40
40023;DHT22;25713;-35.352;149.036;2022-07-29T07:41:34;12.40;70.70
40023;DHT22;25713;-35.352;149.036;2022-07-29T07:44:04;12.40;69.80
40023;DHT22;25713;-35.352;149.036;2022-07-29T07:46:34;12.40;69.90
40023;DHT22;25713;-35.352;149.036;2022-07-29T07:49:06;12.40;69.20
40023;DHT22;25713;-35.352;149.036;2022-07-29T07:51:37;12.40;68.80
40023;DHT22;25713;-35.352;149.036;2022-07-29T07:54:07;12.40;69.20
40023;DHT22;25713;-35.352;149.036;2022-07-29T07:56:38;12.30;69.60
40023;DHT22;25713;-35.352;149.036;2022-07-29T07:59:08;12.30;68.00
40023;DHT22;25713;-35.352;149.036;2022-07-29T08:01:39;12.30;68.70
40023;DHT22;25713;-35.352;149.036;2022-07-29T08:04:11;12.30;68.60
40023;DHT22;25713;-35.352;149.036;2022-07-29T08:06:40;12.30;69.00
40023;DHT22;25713;-35.352;149.036;2022-07-29T08:09:09;12.30;68.40
40023;DHT22;25713;-35.352;149.036;2022-07-29T08:11:40;12.30;68.10
40023;DHT22;25713;-35.352;149.036;2022-07-29T08:14:10;12.30;68.20
40023;DHT22;25713;-35.352;149.036;2022-07-29T08:16:40;12.30;68.20
40023;DHT22;25713;-35.352;149.036;2022-07-29T08:19:12;12.30;67.50
40023;DHT22;25713;-35.352;149.036;2022-07-29T08:21:42;12.30;68.00
40023;DHT22;25713;-35.352;149.036;2022-07-29T08:24:12;12.30;68.10
40023;DHT22;25713;-35.352;149.036;2022-07-29T08:26:42;12.30;67.60
40023;DHT22;25713;-35.352;149.036;2022-07-29T08:29:13;12.20;67.80
40023;DHT22;25713;-35.352;149.036;2022-07-29T08:31:43;12.20;67.80
40023;DHT22;25713;-35.352;149.036;2022-07-29T08:34:15;12.20;68.10
40023;DHT22;25713;-35.352;149.036;2022-07-29T08:36:45;12.20;68.20
40023;DHT22;25713;-35.352;149.036;2022-07-29T08:39:15;12.20;67.80
40023;DHT22;25713;-35.352;149.036;2022-07-29T08:41:45;12.20;67.90
40023;DHT22;25713;-35.352;149.036;2022-07-29T08:44:16;12.20;68.20
40023;DHT22;25713;-35.352;149.036;2022-07-29T08:46:47;12.20;68.20
40023;DHT22;25713;-35.352;149.036;2022-07-29T08:49:19;12.20;68.10
40023;DHT22;25713;-35.352;149.036;2022-07-29T08:51:49;12.10;66.90
40023;DHT22;25713;-35.352;149.036;2022-07-29T08:54:21;12.10;65.80
40023;DHT22;25713;-35.352;149.036;2022-07-29T08:56:51;12.00;66.70
40023;DHT22;25713;-35.352;149.036;2022-07-29T08:59:21;12.00;66.30
40023;DHT22;25713;-35.352;149.036;2022-07-29T09:01:53;12.00;65.40
40023;DHT22;25713;-35.352;149.036;2022-07-29T09:04:29;12.00;65.80
40023;DHT22;25713;-35.352;149.036;2022-07-29T09:07:02;12.00;66.40
40023;DHT22;25713;-35.352;149.036;2022-07-29T09:09:35;12.00;66.40
40023;DHT22;25713;-35.352;149.036;2022-07-29T09:12:05;12.00;66.10
40023;DHT22;25713;-35.352;149.036;2022-07-29T09:14:34;12.00;65.50
40023;DHT22;25713;-35.352;149.036;2022-07-29T09:17:04;11.90;65.60
40023;DHT22;25713;-35.352;149.036;2022-07-29T09:19:36;11.90;66.60
40023;DHT22;25713;-35.352;149.036;2022-07-29T09:22:07;12.00;67.30
40023;DHT22;25713;-35.352;149.036;2022-07-29T09:24:44;11.90;67.40
40023;DHT22;25713;-35.352;149.036;2022-07-29T09:27:22;12.00;67.60
40023;DHT22;25713;-35.352;149.036;2022-07-29T09:30:00;12.00;67.90
40023;DHT22;25713;-35.352;149.036;2022-07-29T09:32:30;11.90;67.90
40023;DHT22;25713;-35.352;149.036;2022-07-29T09:35:19;11.90;67.80
40023;DHT22;25713;-35.352;149.036;2022-07-29T09:37:50;11.90;67.70
40023;DHT22;25713;-35.352;149.036;2022-07-29T09:40:21;11.90;66.70
40023;DHT22;25713;-35.352;149.036;2022-07-29T09:42:52;11.90;66.80
40023;DHT22;25713;-35.352;149.036;2022-07-29T09:45:30;11.90;66.40
40023;DHT22;25713;-35.352;149.036;2022-07-29T09:48:12;11.90;66.70
40023;DHT22;25713;-35.352;149.036;2022-07-29T09:50:45;11.90;66.50
40023;DHT22;25713;-35.352;149.036;2022-07-29T09:53:31;11.90;66.00
40023;DHT22;25713;-35.352;149.036;2022-07-29T09:56:02;11.80;66.00
40023;DHT22;25713;-35.352;149.036;2022-07-29T09:58:33;11.80;66.30
40023;DHT22;25713;-35.352;149.036;2022-07-29T10:01:03;11.80;65.60
40023;DHT22;25713;-35.352;149.036;2022-07-29T10:03:33;11.80;66.20
40023;DHT22;25713;-35.352;149.036;2022-07-29T10:06:21;11.80;66.30
40023;DHT22;25713;-35.352;149.036;2022-07-29T10:08:51;11.80;65.60
40023;DHT22;25713;-35.352;149.036;2022-07-29T10:11:21;11.70;65.90
40023;DHT22;25713;-35.352;149.036;2022-07-29T10:13:51;11.70;65.40
40023;DHT22;25713;-35.352;149.036;2022-07-29T10:16:21;11.70;66.30
40023;DHT22;25713;-35.352;149.036;2022-07-29T10:18:51;11.70;66.30
40023;DHT22;25713;-35.352;149.036;2022-07-29T10:21:23;11.70;66.30
40023;DHT22;25713;-35.352;149.036;2022-07-29T10:23:53;11.70;66.30
40023;DHT22;25713;-35.352;149.036;2022-07-29T10:26:23;11.70;65.70
40023;DHT22;25713;-35.352;149.036;2022-07-29T10:28:53;11.60;64.20
40023;DHT22;25713;-35.352;149.036;2022-07-29T10:31:28;11.60;63.40
40023;DHT22;25713;-35.352;149.036;2022-07-29T10:34:04;11.60;64.20
40023;DHT22;25713;-35.352;149.036;2022-07-29T10:36:49;11.60;64.20
40023;DHT22;25713;-35.352;149.036;2022-07-29T10:39:32;11.60;64.40
40023;DHT22;25713;-35.352;149.036;2022-07-29T10:42:14;11.50;63.50
40023;DHT22;25713;-35.352;149.036;2022-07-29T10:44:46;11.50;63.70
40023;DHT22;25713;-35.352;149.036;2022-07-29T10:47:23;11.50;63.80
40023;DHT22;25713;-35.352;149.036;2022-07-29T10:49:58;11.50;63.70
40023;DHT22;25713;-35.352;149.036;2022-07-29T10:52:56;11.50;63.60
40023;DHT22;25713;-35.352;149.036;2022-07-29T10:55:36;11.50;63.40
40023;DHT22;25713;-35.352;149.036;2022-07-29T10:58:16;11.50;63.60
40023;DHT22;25713;-35.352;149.036;2022-07-29T11:00:46;11.40;63.70
40023;DHT22;25713;-35.352;149.036;2022-07-29T11:03:47;11.40;64.00
40023;DHT22;25713;-35.352;149.036;2022-07-29T11:06:18;11.40;63.70
40023;DHT22;25713;-35.352;149.036;2022-07-29T11:09:15;11.40;63.30
40023;DHT22;25713;-35.352;149.036;2022-07-29T11:11:45;11.40;62.90
40023;DHT22;25713;-35.352;149.036;2022-07-29T11:14:14;11.40;62.80
40023;DHT22;25713;-35.352;149.036;2022-07-29T11:17:04;11.30;64.00
40023;DHT22;25713;-35.352;149.036;2022-07-29T11:19:34;11.30;62.80
40023;DHT22;25713;-35.352;149.036;2022-07-29T11:22:03;11.30;64.40
40023;DHT22;25713;-35.352;149.036;2022-07-29T11:24:39;11.30;63.80
40023;DHT22;25713;-35.352;149.036;2022-07-29T11:27:13;11.20;63.70
40023;DHT22;25713;-35.352;149.036;2022-07-29T11:29:50;11.20;63.30
40023;DHT22;25713;-35.352;149.036;2022-07-29T11:32:21;11.20;63.60
40023;DHT22;25713;-35.352;149.036;2022-07-29T11:37:35;11.20;64.60
40023;DHT22;25713;-35.352;149.036;2022-07-29T11:40:16;11.10;63.40
40023;DHT22;25713;-35.352;149.036;2022-07-29T11:42:50;11.10;64.40
40023;DHT22;25713;-35.352;149.036;2022-07-29T11:45:24;11.10;63.10
40023;DHT22;25713;-35.352;149.036;2022-07-29T11:47:55;11.10;62.90
40023;DHT22;25713;-35.352;149.036;2022-07-29T11:50:34;11.00;63.40
40023;DHT22;25713;-35.352;149.036;2022-07-29T11:53:10;11.10;63.70
40023;DHT22;25713;-35.352;149.036;2022-07-29T11:55:42;11.10;63.20
40023;DHT22;25713;-35.352;149.036;2022-07-29T11:58:13;11.10;63.40
40023;DHT22;25713;-35.352;149.036;2022-07-29T12:00:45;11.10;63.40
40023;DHT22;25713;-35.352;149.036;2022-07-29T12:03:25;11.10;63.30
40023;DHT22;25713;-35.352;149.036;2022-07-29T12:05:54;11.10;64.20
40023;DHT22;25713;-35.352;149.036;2022-07-29T12:08:24;11.10;63.60
40023;DHT22;25713;-35.352;149.036;2022-07-29T12:10:56;11.10;63.90
40023;DHT22;25713;-35.352;149.036;2022-07-29T12:13:27;11.10;64.10
40023;DHT22;25713;-35.352;149.036;2022-07-29T12:16:07;11.10;63.30
40023;DHT22;25713;-35.352;149.036;2022-07-29T12:18:37;11.10;63.40
40023;DHT22;25713;-35.352;149.036;2022-07-29T12:21:06;11.10;65.90
40023;DHT22;25713;-35.352;149.036;2022-07-29T12:23:36;11.10;64.20
40023;DHT22;25713;-35.352;149.036;2022-07-29T12:26:07;11.00;64.30
40023;DHT22;25713;-35.352;149.036;2022-07-29T12:28:38;11.00;64.70
40023;DHT22;25713;-35.352;149.036;2022-07-29T12:31:14;11.00;63.00
40023;DHT22;25713;-35.352;149.036;2022-07-29T12:33:43;11.00;64.30
40023;DHT22;25713;-35.352;149.036;2022-07-29T12:36:21;11.00;66.20
40023;DHT22;25713;-35.352;149.036;2022-07-29T12:38:50;11.00;66.50
40023;DHT22;25713;-35.352;149.036;2022-07-29T12:41:22;11.00;66.20
40023;DHT22;25713;-35.352;149.036;2022-07-29T12:43:55;10.90;65.80
40023;DHT22;25713;-35.352;149.036;2022-07-29T12:46:24;10.90;65.00
40023;DHT22;25713;-35.352;149.036;2022-07-29T12:48:54;10.90;65.30
40023;DHT22;25713;-35.352;149.036;2022-07-29T12:51:30;10.90;66.50
40023;DHT22;25713;-35.352;149.036;2022-07-29T12:54:08;10.90;66.00
40023;DHT22;25713;-35.352;149.036;2022-07-29T12:56:40;10.90;64.90
40023;DHT22;25713;-35.352;149.036;2022-07-29T12:59:15;10.90;65.10
40023;DHT22;25713;-35.352;149.036;2022-07-29T13:01:45;10.90;67.10
40023;DHT22;25713;-35.352;149.036;2022-07-29T13:04:25;10.90;66.70
40023;DHT22;25713;-35.352;149.036;2022-07-29T13:07:00;10.90;67.90
40023;DHT22;25713;-35.352;149.036;2022-07-29T13:09:38;10.80;67.60
40023;DHT22;25713;-35.352;149.036;2022-07-29T13:12:12;10.80;67.90
40023;DHT22;25713;-35.352;149.036;2022-07-29T13:14:40;10.80;66.00
40023;DHT22;25713;-35.352;149.036;2022-07-29T13:17:11;10.70;66.50
40023;DHT22;25713;-35.352;149.036;2022-07-29T13:19:41;10.70;68.60
40023;DHT22;25713;-35.352;149.036;2022-07-29T13:22:11;10.70;66.90
40023;DHT22;25713;-35.352;149.036;2022-07-29T13:24:48;10.60;66.60
40023;DHT22;25713;-35.352;149.036;2022-07-29T13:27:20;10.60;65.90
40023;DHT22;25713;-35.352;149.036;2022-07-29T13:29:51;10.60;66.60
40023;DHT22;25713;-35.352;149.036;2022-07-29T13:32:20;10.50;65.40
40023;DHT22;25713;-35.352;149.036;2022-07-29T13:34:51;10.50;68.10
40023;DHT22;25713;-35.352;149.036;2022-07-29T13:37:22;10.50;68.40
40023;DHT22;25713;-35.352;149.036;2022-07-29T13:39:52;10.50;67.40
40023;DHT22;25713;-35.352;149.036;2022-07-29T13:42:23;10.50;68.30
40023;DHT22;25713;-35.352;149.036;2022-07-29T13:44:53;10.50;68.40
40023;DHT22;25713;-35.352;149.036;2022-07-29T13:47:23;10.50;68.70
40023;DHT22;25713;-35.352;149.036;2022-07-29T13:49:52;10.50;67.10
40023;DHT22;25713;-35.352;149.036;2022-07-29T13:52:22;10.50;71.00
40023;DHT22;25713;-35.352;149.036;2022-07-29T13:54:51;10.50;69.30
40023;DHT22;25713;-35.352;149.036;2022-07-29T13:57:23;10.50;70.20
40023;DHT22;25713;-35.352;149.036;2022-07-29T13:59:54;10.60;68.80
40023;DHT22;25713;-35.352;149.036;2022-07-29T14:02:24;10.60;68.90
40023;DHT22;25713;-35.352;149.036;2022-07-29T14:04:53;10.60;71.40
40023;DHT22;25713;-35.352;149.036;2022-07-29T14:07:23;10.60;70.50
40023;DHT22;25713;-35.352;149.036;2022-07-29T14:09:53;10.70;69.40
40023;DHT22;25713;-35.352;149.036;2022-07-29T14:12:25;10.60;70.80
40023;DHT22;25713;-35.352;149.036;2022-07-29T14:14:56;10.60;70.40
40023;DHT22;25713;-35.352;149.036;2022-07-29T14:17:26;10.60;71.80
40023;DHT22;25713;-35.352;149.036;2022-07-29T14:19:56;10.60;73.80
40023;DHT22;25713;-35.352;149.036;2022-07-29T14:22:26;10.60;74.50
40023;DHT22;25713;-35.352;149.036;2022-07-29T14:24:56;10.60;72.60
40023;DHT22;25713;-35.352;149.036;2022-07-29T14:27:27;10.60;73.30
40023;DHT22;25713;-35.352;149.036;2022-07-29T14:29:57;10.50;72.30
40023;DHT22;25713;-35.352;149.036;2022-07-29T14:32:27;10.50;73.80
40023;DHT22;25713;-35.352;149.036;2022-07-29T14:34:57;10.50;72.00
40023;DHT22;25713;-35.352;149.036;2022-07-29T14:37:27;10.50;74.20
40023;DHT22;25713;-35.352;149.036;2022-07-29T14:39:57;10.50;74.80
40023;DHT22;25713;-35.352;149.036;2022-07-29T14:42:29;10.50;72.60
40023;DHT22;25713;-35.352;149.036;2022-07-29T14:44:58;10.50;75.70
40023;DHT22;25713;-35.352;149.036;2022-07-29T14:47:28;10.50;76.00
40023;DHT22;25713;-35.352;149.036;2022-07-29T14:49:58;10.50;75.20
40023;DHT22;25713;-35.352;149.036;2022-07-29T14:52:28;10.50;75.70
40023;DHT22;25713;-35.352;149.036;2022-07-29T15:55:35;10.00;80.30
40023;DHT22;25713;-35.352;149.036;2022-07-29T15:58:05;10.00;81.40
40023;DHT22;25713;-35.352;149.036;2022-07-29T16:00:35;10.00;83.00
40023;DHT22;25713;-35.352;149.036;2022-07-29T16:03:04;10.00;83.10
40023;DHT22;25713;-35.352;149.036;2022-07-29T16:05:34;10.00;79.40
40023;DHT22;25713;-35.352;149.036;2022-07-29T16:08:04;10.00;79.20
40023;DHT22;25713;-35.352;149.036;2022-07-29T16:10:35;10.00;79.50
40023;DHT22;25713;-35.352;149.036;2022-07-29T16:13:05;10.00;79.20
40023;DHT22;25713;-35.352;149.036;2022-07-29T16:15:34;10.00;80.50
40023;DHT22;25713;-35.352;149.036;2022-07-29T16:18:04;10.00;80.10
40023;DHT22;25713;-35.352;149.036;2022-07-29T16:20:35;10.10;79.80
40023;DHT22;25713;-35.352;149.036;2022-07-29T16:23:05;10.00;80.80